createdAt,value
2022-08-14T00:00:16.494Z,63
2022-08-14T00:02:16.590Z,62
2022-08-14T00:04:32.450Z,63
2022-08-14T00:06:25.537Z,64
2022-08-14T00:08:16.407Z,64
2022-08-14T00:12:23.597Z,64
2022-08-14T00:14:17.184Z,64
2022-08-14T00:16:40.761Z,63
2022-08-14T00:18:30.349Z,62
2022-08-14T00:20:23.590Z,61
2022-08-14T00:22:22.054Z,62
2022-08-14T00:24:14.952Z,61
2022-08-14T00:26:21.597Z,62
2022-08-14T00:28:17.946Z,62
2022-08-14T00:30:18.111Z,61
2022-08-14T00:32:50.212Z,63
2022-08-14T00:34:35.577Z,65
2022-08-14T00:36:34.829Z,64
2022-08-14T00:38:16.551Z,64
2022-08-14T00:40:19.053Z,65
2022-08-14T00:42:21.091Z,65
2022-08-14T00:44:21.589Z,65
2022-08-14T00:46:23.365Z,66
2022-08-14T00:48:34.219Z,66
2022-08-14T00:50:16.690Z,67
2022-08-14T00:52:19.515Z,67
2022-08-14T00:54:16.739Z,66
2022-08-14T00:56:16.513Z,66
2022-08-14T00:58:16.598Z,65
2022-08-14T01:00:17.980Z,66
2022-08-14T01:04:37.474Z,65
2022-08-14T01:06:16.562Z,65
2022-08-14T01:08:20.479Z,66
2022-08-14T01:10:16.609Z,66
2022-08-14T01:12:26.638Z,67
2022-08-14T01:14:22.543Z,66
2022-08-14T01:16:16.962Z,66
2022-08-14T01:18:16.722Z,66
2022-08-14T01:20:27.159Z,66
2022-08-14T01:22:18.720Z,65
2022-08-14T01:24:23.065Z,64
2022-08-14T01:26:23.465Z,64
2022-08-14T01:28:34.133Z,64
2022-08-14T01:30:16.891Z,65
2022-08-14T01:32:22.686Z,65
2022-08-14T01:35:16.156Z,66
2022-08-14T01:36:21.030Z,65
2022-08-14T01:38:16.614Z,65
2022-08-14T01:40:19.858Z,65
2022-08-14T01:42:30.937Z,65
2022-08-14T01:44:31.626Z,65
2022-08-14T01:46:24.304Z,65
2022-08-14T01:48:20.706Z,65
2022-08-14T01:50:16.641Z,65
2022-08-14T01:52:33.874Z,65
2022-08-14T01:56:18.321Z,65
2022-08-14T01:58:19.270Z,64
2022-08-14T02:00:16.758Z,65
2022-08-14T02:02:19.083Z,65
2022-08-14T02:04:20.646Z,66
2022-08-14T02:06:32.067Z,67
2022-08-14T02:08:22.170Z,68
2022-08-14T02:10:16.549Z,69
2022-08-14T02:12:19.509Z,70
2022-08-14T02:14:16.583Z,69
2022-08-14T02:16:22.226Z,68
2022-08-14T02:18:16.528Z,68
2022-08-14T02:20:16.696Z,68
2022-08-14T02:22:16.526Z,68
2022-08-14T02:24:38.609Z,68
2022-08-14T02:26:18.340Z,68
2022-08-14T02:28:19.516Z,69
2022-08-14T02:30:18.194Z,69
2022-08-14T02:34:20.226Z,70
2022-08-14T02:37:03.367Z,70
2022-08-14T02:38:21.240Z,70
2022-08-14T02:40:16.620Z,70
2022-08-14T02:42:16.543Z,70
2022-08-14T02:44:16.576Z,70
2022-08-14T02:46:20.257Z,71
2022-08-14T02:49:01.214Z,70
2022-08-14T02:50:16.527Z,70
2022-08-14T02:52:27.163Z,71
2022-08-14T02:54:19.601Z,71
2022-08-14T02:58:21.393Z,72
2022-08-14T03:00:19.462Z,73
2022-08-14T03:02:33.617Z,73
2022-08-14T03:04:23.403Z,73
2022-08-14T03:06:20.503Z,73
2022-08-14T03:08:17.091Z,73
2022-08-14T03:10:25.471Z,72
2022-08-14T03:12:27.084Z,72
2022-08-14T03:14:17.960Z,72
2022-08-14T03:16:19.722Z,72
2022-08-14T03:18:19.762Z,72
2022-08-14T03:20:16.966Z,72
2022-08-14T03:22:17.491Z,73
2022-08-14T03:24:21.599Z,74
2022-08-14T03:28:29.780Z,74
2022-08-14T03:30:23.334Z,73
2022-08-14T03:32:16.499Z,72
2022-08-14T03:34:24.485Z,72
2022-08-14T03:37:29.453Z,71
2022-08-14T03:39:11.084Z,70
2022-08-14T03:40:17.715Z,70
2022-08-14T03:45:18.427Z,70
2022-08-14T03:46:39.245Z,70
2022-08-14T03:50:18.724Z,73
2022-08-14T03:54:20.640Z,74
2022-08-14T03:56:17.959Z,74
2022-08-14T03:58:23.482Z,71
2022-08-14T04:00:40.845Z,71
2022-08-14T04:02:32.089Z,70
2022-08-14T04:04:15.091Z,70
2022-08-14T04:06:21.018Z,70
2022-08-14T04:08:23.273Z,70
2022-08-14T04:10:14.092Z,70
2022-08-14T04:12:16.866Z,70
2022-08-14T04:14:16.675Z,71
2022-08-14T04:16:19.968Z,71
2022-08-14T04:18:16.576Z,72
2022-08-14T04:20:16.631Z,72
2022-08-14T04:22:19.689Z,72
2022-08-14T04:24:16.526Z,72
2022-08-14T04:26:26.897Z,72
2022-08-14T04:28:58.504Z,72
2022-08-14T04:30:22.244Z,72
2022-08-14T04:32:59.560Z,71
2022-08-14T04:34:21.108Z,72
2022-08-14T04:36:17.459Z,71
2022-08-14T04:38:35.836Z,72
2022-08-14T04:40:18.047Z,73
2022-08-14T04:42:16.584Z,72
2022-08-14T04:44:26.918Z,73
2022-08-14T04:46:54.987Z,74
2022-08-14T04:48:31.736Z,74
2022-08-14T04:50:23.213Z,73
2022-08-14T04:52:19.142Z,73
2022-08-14T04:54:17.387Z,73
2022-08-14T04:56:30.306Z,74
2022-08-14T04:58:21.378Z,73
2022-08-14T05:02:18.257Z,72
2022-08-14T05:04:19.663Z,72
2022-08-14T05:06:37.418Z,74
2022-08-14T05:08:32.532Z,74
2022-08-14T05:10:21.908Z,74
2022-08-14T05:12:39.723Z,74
2022-08-14T05:14:34.533Z,74
2022-08-14T05:16:19.823Z,74
2022-08-14T05:22:19.099Z,74
2022-08-14T05:24:17.609Z,73
2022-08-14T05:26:19.732Z,73
2022-08-14T05:28:17.754Z,72
2022-08-14T05:32:17.791Z,70
2022-08-14T05:34:19.415Z,69
2022-08-14T05:36:17.114Z,69
2022-08-14T05:38:22.517Z,69
2022-08-14T05:40:16.597Z,70
2022-08-14T05:42:21.871Z,70
2022-08-14T05:46:16.618Z,69
2022-08-14T05:48:23.524Z,68
2022-08-14T05:50:17.758Z,69
2022-08-14T05:52:26.283Z,69
2022-08-14T05:54:26.862Z,69
2022-08-14T05:56:16.595Z,64
2022-08-14T05:58:19.480Z,57
2022-08-14T06:00:24.650Z,56
2022-08-14T06:02:16.554Z,56
2022-08-14T06:04:16.869Z,56
2022-08-14T06:08:22.056Z,56
2022-08-14T06:10:16.593Z,56
2022-08-14T06:12:13.886Z,56
2022-08-14T06:16:17.378Z,57
2022-08-14T06:18:17.537Z,56
2022-08-14T06:20:16.581Z,56
2022-08-14T06:22:17.406Z,55
2022-08-14T06:24:19.809Z,55
2022-08-14T06:26:16.544Z,55
2022-08-14T06:28:27.603Z,54
2022-08-14T06:30:16.366Z,54
2022-08-14T06:32:37.187Z,54
2022-08-14T06:35:05.167Z,53
2022-08-14T06:36:19.442Z,53
2022-08-14T06:38:17.406Z,53
2022-08-14T06:40:25.886Z,53
2022-08-14T06:42:32.750Z,53
2022-08-14T06:44:19.452Z,53
2022-08-14T06:46:22.361Z,53
2022-08-14T06:48:17.929Z,52
2022-08-14T06:50:16.912Z,52
2022-08-14T06:52:16.750Z,52
2022-08-14T06:56:16.526Z,53
2022-08-14T06:58:24.894Z,52
2022-08-14T07:00:22.394Z,52
2022-08-14T07:04:23.361Z,52
2022-08-14T07:06:21.571Z,51
2022-08-14T07:08:18.119Z,52
2022-08-14T07:10:17.435Z,52
2022-08-14T07:12:35.090Z,51
2022-08-14T07:14:17.019Z,51
2022-08-14T07:16:17.537Z,51
2022-08-14T07:18:16.572Z,50
2022-08-14T07:20:18.815Z,50
2022-08-14T07:22:20.550Z,50
2022-08-14T07:24:21.564Z,50
2022-08-14T07:28:20.263Z,50
2022-08-14T07:30:33.606Z,51
2022-08-14T07:32:20.135Z,50
2022-08-14T07:34:26.257Z,50
2022-08-14T07:40:22.295Z,49
2022-08-14T07:42:16.524Z,49
2022-08-14T07:44:28.673Z,49
2022-08-14T07:46:21.118Z,49
2022-08-14T07:48:16.638Z,49
2022-08-14T07:52:22.075Z,49
2022-08-14T07:54:23.079Z,50
2022-08-14T07:56:22.213Z,49
2022-08-14T07:58:30.601Z,50
2022-08-14T08:02:17.174Z,49
2022-08-14T08:04:18.871Z,50
2022-08-14T08:06:18.206Z,50
2022-08-14T08:10:16.573Z,50
2022-08-14T08:12:18.263Z,50
2022-08-14T08:14:16.584Z,50
2022-08-14T08:18:20.705Z,50
2022-08-14T08:20:16.764Z,50
2022-08-14T08:22:16.655Z,49
2022-08-14T08:24:20.052Z,50
2022-08-14T08:26:16.571Z,50
2022-08-14T08:28:17.053Z,50
2022-08-14T08:30:16.531Z,49
2022-08-14T08:32:16.920Z,49
2022-08-14T08:34:19.748Z,50
2022-08-14T08:36:18.438Z,50
2022-08-14T08:39:14.365Z,50
2022-08-14T08:40:20.672Z,49
2022-08-14T08:42:16.610Z,49
2022-08-14T08:44:17.192Z,49
2022-08-14T08:46:18.722Z,48
2022-08-14T08:48:20.821Z,48
2022-08-14T08:50:22.870Z,49
2022-08-14T08:52:24.794Z,49
2022-08-14T08:54:18.299Z,48
2022-08-14T08:56:16.850Z,49
2022-08-14T08:58:19.921Z,49
2022-08-14T09:00:24.144Z,48
2022-08-14T09:02:16.559Z,48
2022-08-14T09:04:17.491Z,49
2022-08-14T09:08:26.468Z,49
2022-08-14T09:10:18.710Z,48
2022-08-14T09:12:16.586Z,48
2022-08-14T09:14:17.049Z,49
2022-08-14T09:16:18.932Z,48
2022-08-14T09:20:19.361Z,47
2022-08-14T09:22:34.686Z,47
2022-08-14T09:24:26.052Z,47
2022-08-14T09:28:17.081Z,47
2022-08-14T09:30:33.232Z,47
2022-08-14T09:32:58.479Z,47
2022-08-14T09:34:19.905Z,47
2022-08-14T09:38:25.927Z,47
2022-08-14T09:40:16.489Z,47
2022-08-14T09:42:18.122Z,48
2022-08-14T09:44:21.074Z,48
2022-08-14T09:46:16.893Z,47
2022-08-14T09:48:19.735Z,47
2022-08-14T09:50:16.550Z,47
2022-08-14T09:52:23.921Z,47
2022-08-14T09:54:19.731Z,47
2022-08-14T09:56:13.827Z,46
2022-08-14T10:00:28.855Z,47
2022-08-14T10:02:14.848Z,47
2022-08-14T10:04:33.211Z,46
2022-08-14T10:06:19.922Z,47
2022-08-14T10:08:25.672Z,47
2022-08-14T10:10:16.606Z,45
2022-08-14T10:12:18.809Z,45
2022-08-14T10:14:21.271Z,45
2022-08-14T10:16:22.037Z,45
2022-08-14T10:18:17.398Z,44
2022-08-14T10:20:39.248Z,44
2022-08-14T10:23:13.771Z,45
2022-08-14T10:26:22.577Z,44
2022-08-14T10:28:29.167Z,44
2022-08-14T10:30:22.105Z,44
2022-08-14T10:32:17.511Z,45
2022-08-14T10:36:33.672Z,44
2022-08-14T10:38:16.834Z,44
2022-08-14T10:40:32.502Z,44
2022-08-14T10:44:21.176Z,44
2022-08-14T10:46:22.238Z,44
2022-08-14T10:48:24.194Z,44
2022-08-14T10:50:16.606Z,44
2022-08-14T10:52:15.059Z,44
2022-08-14T10:54:35.679Z,43
2022-08-14T10:56:21.218Z,42
2022-08-14T11:00:20.354Z,42
2022-08-14T11:02:18.321Z,43
2022-08-14T11:04:16.613Z,42
2022-08-14T11:06:16.606Z,43
2022-08-14T11:08:16.582Z,42
2022-08-14T11:12:33.460Z,42
2022-08-14T11:14:19.523Z,42
2022-08-14T11:16:16.610Z,42
2022-08-14T11:20:16.873Z,42
2022-08-14T11:22:53.114Z,43
2022-08-14T11:24:50.384Z,43
2022-08-14T11:26:16.774Z,43
2022-08-14T11:28:19.668Z,43
2022-08-14T11:32:17.910Z,42
2022-08-14T11:34:30.149Z,42
2022-08-14T11:36:18.099Z,41
2022-08-14T11:38:18.224Z,42
2022-08-14T11:42:55.839Z,42
2022-08-14T11:44:45.277Z,42
2022-08-14T11:46:29.469Z,41
2022-08-14T11:48:59.864Z,40
2022-08-14T11:50:24.892Z,41
2022-08-14T11:52:19.716Z,41
2022-08-14T11:54:19.351Z,41
2022-08-14T11:56:17.542Z,41
2022-08-14T11:58:24.043Z,41
2022-08-14T12:00:19.452Z,41
2022-08-14T12:03:01.970Z,88
2022-08-14T12:04:21.936Z,42
2022-08-14T12:06:28.203Z,41
2022-08-14T12:08:16.673Z,41
2022-08-14T12:10:25.728Z,41
2022-08-14T12:12:35.451Z,40
2022-08-14T12:14:29.599Z,40
2022-08-14T12:16:20.543Z,41
2022-08-14T12:18:19.292Z,41
2022-08-14T12:20:29.782Z,40
2022-08-14T12:22:17.609Z,40
2022-08-14T12:24:31.908Z,39
2022-08-14T12:26:32.250Z,40
2022-08-14T12:30:21.253Z,40
2022-08-14T12:32:19.801Z,40
2022-08-14T12:34:20.256Z,40
2022-08-14T12:36:18.379Z,41
2022-08-14T12:38:19.272Z,41
2022-08-14T12:40:19.677Z,41
2022-08-14T12:42:27.479Z,41
2022-08-14T12:44:17.486Z,41
2022-08-14T12:46:22.515Z,41
2022-08-14T12:48:20.842Z,41
2022-08-14T12:50:16.572Z,41
2022-08-14T12:52:16.850Z,41
2022-08-14T12:54:26.492Z,41
2022-08-14T12:56:18.124Z,41
2022-08-14T12:58:29.156Z,40
2022-08-14T13:00:22.354Z,40
2022-08-14T13:02:19.822Z,40
2022-08-14T13:04:16.915Z,40
2022-08-14T13:06:16.631Z,40
2022-08-14T13:08:22.530Z,40
2022-08-14T13:10:46.396Z,40
2022-08-14T13:12:31.132Z,41
2022-08-14T13:14:17.143Z,41
2022-08-14T13:16:20.048Z,41
2022-08-14T13:18:16.578Z,41
2022-08-14T13:20:23.111Z,41
2022-08-14T13:22:19.419Z,41
2022-08-14T13:24:19.772Z,41
2022-08-14T13:26:16.708Z,41
2022-08-14T13:28:16.817Z,40
2022-08-14T13:30:21.487Z,40
2022-08-14T13:32:18.154Z,40
2022-08-14T13:34:16.560Z,41
2022-08-14T13:36:23.829Z,40
2022-08-14T13:38:19.820Z,41
2022-08-14T13:40:16.696Z,41
2022-08-14T13:42:16.965Z,41
2022-08-14T13:46:16.548Z,41
2022-08-14T13:50:18.280Z,41
2022-08-14T13:52:48.481Z,41
2022-08-14T13:54:16.899Z,40
2022-08-14T13:56:25.720Z,40
2022-08-14T13:58:30.511Z,41
2022-08-14T14:00:17.934Z,41
2022-08-14T14:06:16.635Z,41
2022-08-14T14:08:18.658Z,41
2022-08-14T14:10:16.695Z,41
2022-08-14T14:12:36.791Z,41
2022-08-14T14:16:21.729Z,41
2022-08-14T14:20:34.084Z,41
2022-08-14T14:22:34.431Z,40
2022-08-14T14:24:16.608Z,39
2022-08-14T14:26:18.893Z,39
2022-08-14T14:28:16.872Z,39
2022-08-14T14:30:45.960Z,39
2022-08-14T14:32:17.316Z,39
2022-08-14T14:34:28.975Z,39
2022-08-14T14:36:15.195Z,39
2022-08-14T14:38:22.778Z,39
2022-08-14T14:40:50.853Z,39
2022-08-14T14:44:16.952Z,39
2022-08-14T14:48:16.614Z,39
2022-08-14T14:50:17.059Z,39
2022-08-14T14:52:23.536Z,39
2022-08-14T14:54:19.512Z,39
2022-08-14T14:56:51.405Z,39
2022-08-14T14:58:20.441Z,39
2022-08-14T15:00:18.512Z,40
2022-08-14T15:02:17.010Z,40
2022-08-14T15:04:20.467Z,40
2022-08-14T15:06:19.915Z,40
2022-08-14T15:08:16.798Z,40
2022-08-14T15:10:26.510Z,40
2022-08-14T15:12:34.903Z,39
2022-08-14T15:14:54.156Z,40
2022-08-14T15:16:17.259Z,40
2022-08-14T15:18:37.712Z,40
2022-08-14T15:20:17.036Z,40
2022-08-14T15:22:16.412Z,40
2022-08-14T15:24:20.807Z,40
2022-08-14T15:26:23.596Z,40
2022-08-14T15:28:23.704Z,40
2022-08-14T15:30:23.526Z,40
2022-08-14T15:32:19.869Z,40
2022-08-14T15:34:41.073Z,40
2022-08-14T15:36:25.567Z,39
2022-08-14T15:38:17.722Z,39
2022-08-14T15:40:21.948Z,39
2022-08-14T15:46:25.158Z,39
2022-08-14T15:50:16.633Z,40
2022-08-14T15:52:32.361Z,39
2022-08-14T15:54:16.663Z,39
2022-08-14T15:56:32.801Z,39
2022-08-14T15:58:16.621Z,38
2022-08-14T16:00:21.396Z,38
2022-08-14T16:04:17.401Z,38
2022-08-14T16:06:17.558Z,38
2022-08-14T16:08:27.554Z,38
2022-08-14T16:10:28.786Z,38
2022-08-14T16:12:16.622Z,38
2022-08-14T16:14:20.576Z,39
2022-08-14T16:16:34.224Z,39
2022-08-14T16:18:19.831Z,38
2022-08-14T16:20:41.210Z,39
2022-08-14T16:22:57.874Z,39
2022-08-14T16:26:19.086Z,39
2022-08-14T16:28:27.273Z,38
2022-08-14T16:30:20.933Z,38
2022-08-14T16:32:32.426Z,38
2022-08-14T16:36:19.771Z,38
2022-08-14T16:38:19.455Z,38
2022-08-14T16:40:16.628Z,39
2022-08-14T16:42:39.707Z,39
2022-08-14T16:44:21.772Z,39
2022-08-14T16:46:16.668Z,39
2022-08-14T16:48:55.765Z,39
2022-08-14T16:50:40.289Z,39
2022-08-14T16:52:26.588Z,39
2022-08-14T16:54:34.695Z,39
2022-08-14T16:56:24.128Z,40
2022-08-14T16:58:16.675Z,40
2022-08-14T17:00:19.838Z,40
2022-08-14T17:02:14.892Z,40
2022-08-14T17:04:24.552Z,40
2022-08-14T17:06:31.001Z,39
2022-08-14T17:08:28.725Z,40
2022-08-14T17:10:17.173Z,40
2022-08-14T17:12:28.813Z,41
2022-08-14T17:14:16.620Z,41
2022-08-14T17:16:24.072Z,41
2022-08-14T17:18:22.148Z,41
2022-08-14T17:22:19.668Z,41
2022-08-14T17:24:51.095Z,41
2022-08-14T17:26:19.866Z,41
2022-08-14T17:28:50.885Z,41
2022-08-14T17:30:32.132Z,41
2022-08-14T17:32:19.342Z,41
2022-08-14T17:34:18.160Z,41
2022-08-14T17:36:20.076Z,41
2022-08-14T17:38:33.405Z,41
2022-08-14T17:40:16.773Z,41
2022-08-14T17:42:16.667Z,42
2022-08-14T17:44:21.801Z,42
2022-08-14T17:46:17.711Z,42
2022-08-14T17:49:11.151Z,42
2022-08-14T17:50:59.220Z,42
2022-08-14T17:52:18.316Z,42
2022-08-14T17:54:34.601Z,42
2022-08-14T17:56:18.255Z,42
2022-08-14T17:58:23.068Z,42
2022-08-14T18:00:17.194Z,42
2022-08-14T18:02:16.964Z,42
2022-08-14T18:04:24.583Z,42
2022-08-14T18:06:38.930Z,42
2022-08-14T18:08:33.470Z,42
2022-08-14T18:10:52.812Z,42
2022-08-14T18:12:31.622Z,42
2022-08-14T18:14:20.781Z,42
2022-08-14T18:16:23.345Z,42
2022-08-14T18:18:18.232Z,42
2022-08-14T18:21:25.083Z,42
2022-08-14T18:22:24.170Z,43
2022-08-14T18:24:20.520Z,42
2022-08-14T18:26:35.958Z,43
2022-08-14T18:28:18.158Z,42
2022-08-14T18:30:31.362Z,42
2022-08-14T18:32:16.651Z,43
2022-08-14T18:34:30.691Z,43
2022-08-14T18:36:46.860Z,42
2022-08-14T18:38:25.644Z,42
2022-08-14T18:40:19.821Z,43
2022-08-14T18:42:16.808Z,43
2022-08-14T18:44:16.633Z,43
2022-08-14T18:46:36.782Z,43
2022-08-14T18:48:16.685Z,43
2022-08-14T18:50:26.660Z,43
2022-08-14T18:52:19.741Z,44
2022-08-14T18:54:17.843Z,44
2022-08-14T18:56:18.316Z,44
2022-08-14T19:00:18.234Z,44
2022-08-14T19:02:20.367Z,44
2022-08-14T19:04:16.634Z,44
2022-08-14T19:06:16.886Z,45
2022-08-14T19:08:21.934Z,46
2022-08-14T19:10:19.894Z,47
2022-08-14T19:12:16.601Z,48
2022-08-14T19:14:21.454Z,47
2022-08-14T19:16:23.098Z,46
2022-08-14T19:18:25.789Z,46
2022-08-14T19:20:16.780Z,46
2022-08-14T19:22:29.321Z,45
2022-08-14T19:24:27.001Z,46
2022-08-14T19:28:27.497Z,46
2022-08-14T19:30:19.441Z,47
2022-08-14T19:32:16.592Z,47
2022-08-14T19:34:29.525Z,47
2022-08-14T19:36:21.988Z,47
2022-08-14T19:38:32.644Z,47
2022-08-14T19:40:19.481Z,47
2022-08-14T19:44:16.528Z,47
2022-08-14T19:46:33.305Z,47
2022-08-14T19:48:20.077Z,48
2022-08-14T19:50:30.832Z,48
2022-08-14T19:52:16.857Z,48
2022-08-14T19:54:16.626Z,48
2022-08-14T19:56:29.229Z,48
2022-08-14T19:58:28.177Z,48
2022-08-14T20:00:20.590Z,48
2022-08-14T20:02:20.716Z,48
2022-08-14T20:04:45.525Z,48
2022-08-14T20:09:06.617Z,49
2022-08-14T20:11:01.691Z,49
2022-08-14T20:12:28.240Z,49
2022-08-14T20:14:20.248Z,49
2022-08-14T20:16:21.091Z,49
2022-08-14T20:18:32.906Z,49
2022-08-14T20:20:16.691Z,49
2022-08-14T20:22:35.983Z,49
2022-08-14T20:24:30.707Z,49
2022-08-14T20:26:31.120Z,49
2022-08-14T20:28:29.219Z,49
2022-08-14T20:30:34.496Z,49
2022-08-14T20:32:19.764Z,49
2022-08-14T20:34:19.474Z,49
2022-08-14T20:36:22.135Z,50
2022-08-14T20:38:29.961Z,50
2022-08-14T20:40:23.689Z,50
2022-08-14T20:42:16.641Z,50
2022-08-14T20:44:20.871Z,50
2022-08-14T20:46:16.625Z,50
2022-08-14T20:48:16.645Z,50
2022-08-14T20:52:19.361Z,50
2022-08-14T20:54:16.656Z,50
2022-08-14T20:56:27.998Z,51
2022-08-14T20:58:38.433Z,50
2022-08-14T21:00:16.697Z,50
2022-08-14T21:02:24.139Z,50
2022-08-14T21:04:16.975Z,52
2022-08-14T21:06:17.475Z,52
2022-08-14T21:08:22.663Z,52
2022-08-14T21:10:32.903Z,52
2022-08-14T21:12:33.565Z,51
2022-08-14T21:14:20.287Z,51
2022-08-14T21:16:26.042Z,51
2022-08-14T21:20:21.576Z,51
2022-08-14T21:22:16.648Z,50
2022-08-14T21:24:22.918Z,50
2022-08-14T21:26:16.974Z,50
2022-08-14T21:28:20.894Z,50
2022-08-14T21:30:20.804Z,51
2022-08-14T21:32:20.452Z,51
2022-08-14T21:34:27.734Z,52
2022-08-14T21:36:21.111Z,52
2022-08-14T21:38:16.837Z,53
2022-08-14T21:40:18.865Z,53
2022-08-14T21:46:19.605Z,54
2022-08-14T21:48:19.804Z,53
2022-08-14T21:50:39.951Z,54
2022-08-14T21:52:50.106Z,54
2022-08-14T21:54:30.115Z,54
2022-08-14T21:56:16.635Z,54
2022-08-14T22:00:30.633Z,54
2022-08-14T22:02:32.136Z,55
2022-08-14T22:04:32.013Z,56
2022-08-14T22:06:17.426Z,56
2022-08-14T22:08:16.695Z,56
2022-08-14T22:10:22.830Z,56
2022-08-14T22:12:45.177Z,56
2022-08-14T22:14:25.731Z,56
2022-08-14T22:17:00.455Z,56
2022-08-14T22:18:20.036Z,57
2022-08-14T22:20:16.715Z,57
2022-08-14T22:22:19.888Z,56
2022-08-14T22:24:26.029Z,56
2022-08-14T22:26:21.769Z,56
2022-08-14T22:28:16.618Z,56
2022-08-14T22:30:18.507Z,56
2022-08-14T22:32:17.992Z,55
2022-08-14T22:34:16.671Z,55
2022-08-14T22:36:24.745Z,56
2022-08-14T22:38:35.253Z,56
2022-08-14T22:40:18.133Z,56
2022-08-14T22:42:19.208Z,56
2022-08-14T22:44:17.016Z,56
2022-08-14T22:46:20.184Z,57
2022-08-14T22:48:16.617Z,56
2022-08-14T22:50:29.885Z,56
2022-08-14T22:52:32.335Z,56
2022-08-14T22:54:51.497Z,56
2022-08-14T22:56:20.062Z,57
2022-08-14T22:58:30.777Z,57
2022-08-14T23:00:16.797Z,57
2022-08-14T23:04:34.657Z,56
2022-08-14T23:08:57.353Z,56
2022-08-14T23:10:31.492Z,56
2022-08-14T23:12:28.200Z,56
2022-08-14T23:14:23.806Z,57
2022-08-14T23:18:22.369Z,58
2022-08-14T23:20:18.721Z,57
2022-08-14T23:22:16.818Z,58
2022-08-14T23:24:27.166Z,58
2022-08-14T23:26:47.480Z,58
2022-08-14T23:28:33.182Z,58
2022-08-14T23:30:31.342Z,59
2022-08-14T23:32:18.649Z,59
2022-08-14T23:34:20.539Z,60
2022-08-14T23:36:28.588Z,59
2022-08-14T23:38:30.242Z,59
2022-08-14T23:40:26.737Z,58
2022-08-14T23:42:17.948Z,58
2022-08-14T23:44:16.635Z,59
2022-08-14T23:46:16.648Z,59
2022-08-14T23:48:19.457Z,60
2022-08-14T23:50:33.972Z,59
2022-08-14T23:52:51.745Z,59
2022-08-14T23:54:47.850Z,59
2022-08-14T23:56:13.902Z,60
2022-08-14T23:58:29.065Z,59
